Time;durP1;ratioP1;P1;durP2;ratioP2;P2;SDS_P1;SDS_P2;PMS_P1;PMS_P2;Temp;Humidity;BMP_temperature;BMP_pressure;BME280_temperature;BME280_humidity;BME280_pressure;Samples;Min_cycle;Max_cycle;Signal;HPM_P1;HPM_P2
2021/12/02 00:00:06;;;;;;;;;;;;;;;19.03;48.23;98777.66;2077115;28;19913;-65
2021/12/02 00:01:06;;;;;;;;;;;;;;;19.02;48.41;98774.09;2073621;28;19917;-65
2021/12/02 00:02:07;;;;;;;;;;;;;;;19.02;48.23;98774.09;2073839;28;19964;-65
2021/12/02 00:03:08;;;;;;;;;;;;;;;19.00;48.24;98765.22;2070906;28;20720;-65
2021/12/02 00:04:09;;;;;;;;;;;;;;;19.00;48.28;98762.50;2072513;28;19956;-65
2021/12/02 00:05:09;;;;;;;;;;;;;;;19.02;48.44;98773.25;2077723;28;20116;-65
2021/12/02 00:06:11;;;;;;;;;;;;;;;19.02;48.28;98767.78;2075136;28;20007;-65
2021/12/02 00:07:12;;;;;;;;;;;;;;;19.02;48.28;98767.78;2074265;28;20513;-65
2021/12/02 00:08:12;;;;;;;;;;;;;;;19.02;48.24;98762.31;2074836;28;19954;-65
2021/12/02 00:09:12;;;;;;;;;;;;;;;19.01;48.35;98760.59;2083755;28;20375;-65
2021/12/02 00:10:13;;;;;;;;;;;;;;;19.01;48.32;98764.22;2083649;28;19916;-65
2021/12/02 00:11:14;;;;;;;;;;;;;;;19.01;48.26;98760.59;2073826;28;19955;-65
2021/12/02 00:12:14;;;;;;;;;;;;;;;19.02;48.40;98762.31;2079598;28;19983;-65
2021/12/02 00:13:15;;;;;;;;;;;;;;;19.02;48.35;98767.78;2074664;28;19917;-65
2021/12/02 00:14:22;;;;;;;;;;;;;;;19.01;48.31;98761.47;2084531;28;19944;-65
2021/12/02 00:15:26;;;;;;;;;;;;;;;19.00;48.42;98758.91;2082810;28;19989;-65
2021/12/02 00:17:39;;;;;;;;;;;;;;;19.00;48.36;98767.09;2076996;28;19916;-65
2021/12/02 00:22:05;;;;;;;;;;;;;;;18.99;48.37;98758.06;2076359;28;19916;-65
2021/12/02 00:23:12;;;;;;;;;;;;;;;18.99;48.38;98757.22;2074181;28;19921;-65
2021/12/02 00:24:14;;;;;;;;;;;;;;;18.99;48.43;98757.22;2075272;28;20386;-65
2021/12/02 00:25:15;;;;;;;;;;;;;;;18.99;48.41;98754.50;2075388;28;20968;-65
2021/12/02 00:26:17;;;;;;;;;;;;;;;18.98;48.51;98761.81;2074908;28;20262;-65
2021/12/02 00:27:18;;;;;;;;;;;;;;;18.99;48.44;98760.81;2075918;28;20103;-65
2021/12/02 00:28:18;;;;;;;;;;;;;;;18.99;48.45;98759.97;2074787;28;20157;-65
2021/12/02 00:29:20;;;;;;;;;;;;;;;18.98;48.46;98763.69;2074705;28;19917;-65
2021/12/02 00:30:21;;;;;;;;;;;;;;;18.99;48.54;98757.22;2073755;28;19917;-65
2021/12/02 00:31:22;;;;;;;;;;;;;;;18.98;48.38;98756.34;2075937;28;19916;-65
2021/12/02 00:32:25;;;;;;;;;;;;;;;18.98;48.37;98750.03;2076492;28;20407;-65
2021/12/02 00:33:26;;;;;;;;;;;;;;;18.98;48.43;98755.50;2074650;28;19981;-65
2021/12/02 00:34:28;;;;;;;;;;;;;;;18.98;48.58;98755.50;2083877;28;19964;-65
2021/12/02 00:35:28;;;;;;;;;;;;;;;18.97;48.43;98754.66;2082443;28;19917;-65
2021/12/02 00:36:30;;;;;;;;;;;;;;;18.98;48.53;98755.50;2072734;28;20653;-65
2021/12/02 00:37:31;;;;;;;;;;;;;;;18.97;48.54;98749.19;2076416;28;19920;-65
2021/12/02 00:38:31;;;;;;;;;;;;;;;18.97;48.50;98748.38;2075472;28;19923;-65
2021/12/02 00:39:32;;;;;;;;;;;;;;;18.98;48.53;98748.16;2076569;28;19921;-65
2021/12/02 00:40:34;;;;;;;;;;;;;;;18.98;48.55;98750.88;2075968;28;19921;-65
2021/12/02 00:41:34;;;;;;;;;;;;;;;18.99;48.52;98749.03;2075407;28;19923;-64
2021/12/02 00:42:35;;;;;;;;;;;;;;;18.98;48.42;98747.31;2075125;28;19916;-65
2021/12/02 00:43:36;;;;;;;;;;;;;;;18.98;48.54;98750.88;2073635;28;19924;-65
2021/12/02 00:44:37;;;;;;;;;;;;;;;18.97;48.52;98743.75;2075018;28;19919;-65
2021/12/02 00:45:39;;;;;;;;;;;;;;;18.96;48.55;98742.06;2075319;28;19913;-65
2021/12/02 00:46:40;;;;;;;;;;;;;;;18.97;48.47;98743.75;2076268;28;20496;-66
2021/12/02 00:47:41;;;;;;;;;;;;;;;18.97;48.39;98742.91;2087158;28;20376;-66
2021/12/02 00:48:42;;;;;;;;;;;;;;;18.97;48.47;98742.91;2085346;28;19935;-65
2021/12/02 00:49:43;;;;;;;;;;;;;;;18.98;48.54;98744.59;2079735;28;19917;-66
2021/12/02 00:50:45;;;;;;;;;;;;;;;18.97;48.54;98748.38;2078812;28;19916;-66
2021/12/02 00:51:53;;;;;;;;;;;;;;;18.97;48.54;98738.28;2082852;28;19981;-66
2021/12/02 00:52:55;;;;;;;;;;;;;;;18.98;48.66;98733.66;2080058;28;19995;-66
2021/12/02 00:53:59;;;;;;;;;;;;;;;18.96;48.62;98733.88;2079859;28;19919;-66
2021/12/02 00:55:00;;;;;;;;;;;;;;;18.96;48.55;98731.13;2080170;28;19913;-65
2021/12/02 00:56:05;;;;;;;;;;;;;;;18.96;48.70;98731.13;2081852;28;19929;-66
2021/12/02 00:57:05;;;;;;;;;;;;;;;18.97;48.53;98731.97;2081590;28;19910;-65
2021/12/02 00:58:06;;;;;;;;;;;;;;;18.97;48.63;98731.97;2080252;28;19917;-66
2021/12/02 00:59:07;;;;;;;;;;;;;;;18.95;48.58;98723.13;2078640;28;19927;-66
2021/12/02 01:00:08;;;;;;;;;;;;;;;18.96;48.56;98730.25;2073771;28;20508;-66
2021/12/02 01:01:10;;;;;;;;;;;;;;;18.96;48.69;98728.41;2078827;28;20404;-66
2021/12/02 01:02:10;;;;;;;;;;;;;;;18.97;48.54;98731.97;2077373;28;19972;-66
2021/12/02 01:03:12;;;;;;;;;;;;;;;18.96;48.54;98731.13;2086295;28;19939;-66
2021/12/02 01:04:14;;;;;;;;;;;;;;;18.95;48.65;98731.31;2077176;28;19928;-67
2021/12/02 01:05:14;;;;;;;;;;;;;;;18.96;48.54;98724.78;2074977;28;19909;-66
2021/12/02 01:06:14;;;;;;;;;;;;;;;18.95;48.57;98728.56;2078990;28;19928;-66
2021/12/02 01:07:16;;;;;;;;;;;;;;;18.95;48.64;98728.56;2078553;28;19960;-66
2021/12/02 01:08:16;;;;;;;;;;;;;;;18.96;48.54;98728.41;2074866;28;19916;-66
2021/12/02 01:09:17;;;;;;;;;;;;;;;18.93;48.67;98725.16;2079017;28;20003;-66
2021/12/02 01:10:19;;;;;;;;;;;;;;;18.97;48.68;98731.97;2078572;28;20647;-66
2021/12/02 01:11:19;;;;;;;;;;;;;;;18.95;48.67;98723.13;2079777;28;20307;-66
2021/12/02 01:12:20;;;;;;;;;;;;;;;18.95;48.62;98720.38;2078617;28;20022;-66
2021/12/02 01:13:21;;;;;;;;;;;;;;;18.94;48.60;98721.44;2078784;28;19947;-66
2021/12/02 01:14:21;;;;;;;;;;;;;;;18.95;48.65;98717.66;2079359;28;19921;-66
2021/12/02 01:15:22;;;;;;;;;;;;;;;18.95;48.65;98717.66;2077954;28;19912;-66
2021/12/02 01:16:22;;;;;;;;;;;;;;;18.94;48.57;98725.00;2077634;28;19939;-66
2021/12/02 01:17:23;;;;;;;;;;;;;;;18.95;48.70;98717.66;2077339;28;19939;-66
2021/12/02 01:18:24;;;;;;;;;;;;;;;18.93;48.62;98726.00;2078890;28;19952;-66
2021/12/02 01:19:24;;;;;;;;;;;;;;;18.94;48.65;98721.44;2078544;28;19963;-66
2021/12/02 01:20:24;;;;;;;;;;;;;;;18.93;48.65;98722.44;2079498;28;19911;-66
2021/12/02 01:21:26;;;;;;;;;;;;;;;18.93;48.77;98726.00;2078757;28;20006;-66
2021/12/02 01:22:28;;;;;;;;;;;;;;;18.94;48.70;98726.88;2079455;28;20534;-66
2021/12/02 01:23:29;;;;;;;;;;;;;;;18.94;48.57;98726.88;2077970;28;19932;-66
2021/12/02 01:24:30;;;;;;;;;;;;;;;18.94;48.76;98726.88;2080671;28;19909;-66
2021/12/02 01:25:31;;;;;;;;;;;;;;;18.93;48.74;98727.91;2076805;28;19924;-66
2021/12/02 01:26:32;;;;;;;;;;;;;;;18.94;48.64;98726.88;2080200;28;19924;-66
2021/12/02 01:27:35;;;;;;;;;;;;;;;18.94;48.70;98732.34;2073108;28;20000;-66
2021/12/02 01:28:36;;;;;;;;;;;;;;;18.94;48.73;98729.63;2075319;28;20253;-67
2021/12/02 01:29:37;;;;;;;;;;;;;;;18.93;48.74;98725.16;2078620;28;20156;-66
2021/12/02 01:30:37;;;;;;;;;;;;;;;18.93;48.63;98722.44;2079935;28;19948;-67
2021/12/02 01:31:37;;;;;;;;;;;;;;;18.92;48.81;98728.94;2078603;28;20985;-66
2021/12/02 01:32:38;;;;;;;;;;;;;;;18.94;48.66;98721.44;2078468;28;20414;-66
2021/12/02 01:33:39;;;;;;;;;;;;;;;18.93;48.74;98725.16;2078506;28;19952;-66
2021/12/02 01:34:43;;;;;;;;;;;;;;;18.93;48.68;98728.75;2085902;28;19920;-66
2021/12/02 01:35:47;;;;;;;;;;;;;;;18.93;48.81;98725.16;2087092;28;19913;-66
2021/12/02 01:36:49;;;;;;;;;;;;;;;18.92;48.72;98723.47;2078071;28;20438;-66
2021/12/02 01:37:50;;;;;;;;;;;;;;;18.93;48.66;98719.72;2078980;28;19917;-66
2021/12/02 01:38:52;;;;;;;;;;;;;;;18.92;48.75;98728.94;2083016;28;19905;-66
2021/12/02 01:39:52;;;;;;;;;;;;;;;18.92;48.75;98728.94;2078655;28;19916;-67
2021/12/02 01:40:54;;;;;;;;;;;;;;;18.91;48.75;98728.06;2079937;28;19973;-66
2021/12/02 01:41:55;;;;;;;;;;;;;;;18.93;48.74;98736.09;2078752;28;20055;-67
2021/12/02 01:42:57;;;;;;;;;;;;;;;18.92;48.82;98734.41;2080506;28;20023;-66
2021/12/02 01:43:58;;;;;;;;;;;;;;;18.92;48.93;98731.69;2079405;28;20110;-66
2021/12/02 01:44:58;;;;;;;;;;;;;;;18.92;48.66;98728.94;2076162;28;20287;-67
2021/12/02 01:45:59;;;;;;;;;;;;;;;18.92;48.67;98726.22;2079324;28;20207;-67
2021/12/02 01:47:00;;;;;;;;;;;;;;;18.92;48.85;98726.22;2076041;28;20802;-66
2021/12/02 01:48:02;;;;;;;;;;;;;;;18.90;48.77;98723.66;2079973;28;20418;-66
2021/12/02 01:49:06;;;;;;;;;;;;;;;18.91;48.74;98719.03;2080307;28;19970;-67
2021/12/02 01:50:09;;;;;;;;;;;;;;;18.91;48.83;98716.31;2078807;28;19916;-67
2021/12/02 01:51:13;;;;;;;;;;;;;;;18.91;48.85;98710.84;2087968;28;19912;-66
2021/12/02 01:52:14;;;;;;;;;;;;;;;18.90;48.78;98706.44;2086605;28;19991;-66
2021/12/02 01:53:15;;;;;;;;;;;;;;;18.91;48.92;98713.56;2081948;28;20339;-67
2021/12/02 01:54:18;;;;;;;;;;;;;;;18.91;48.76;98706.22;2076458;28;19979;-67
2021/12/02 01:55:18;;;;;;;;;;;;;;;18.91;48.75;98708.13;2078418;28;20051;-66
2021/12/02 01:56:18;;;;;;;;;;;;;;;18.90;48.79;98707.28;2082657;28;19963;-66
2021/12/02 01:57:27;;;;;;;;;;;;;;;18.91;48.62;98713.56;2086712;28;19912;-67
2021/12/02 01:58:29;;;;;;;;;;;;;;;18.92;48.85;98707.09;2080047;28;19917;-66
2021/12/02 01:59:33;;;;;;;;;;;;;;;18.92;48.71;98709.84;2078976;28;20277;-66
2021/12/02 02:00:42;;;;;;;;;;;;;;;18.91;48.78;98703.50;2077629;28;19924;-67
2021/12/02 02:01:43;;;;;;;;;;;;;;;18.91;48.82;98705.38;2078011;28;19923;-68
2021/12/02 02:02:43;;;;;;;;;;;;;;;18.91;48.84;98705.38;2076024;28;20415;-66
2021/12/02 02:03:44;;;;;;;;;;;;;;;18.91;48.76;98705.38;2079346;28;19960;-66
2021/12/02 02:04:44;;;;;;;;;;;;;;;18.92;48.86;98707.09;2078725;28;19916;-66
2021/12/02 02:05:50;;;;;;;;;;;;;;;18.91;48.82;98711.69;2076569;28;19917;-66
2021/12/02 02:06:56;;;;;;;;;;;;;;;18.90;48.77;98715.47;2076696;28;19917;-66
2021/12/02 02:08:02;;;;;;;;;;;;;;;18.92;48.73;98707.09;2075010;28;20004;-66
2021/12/02 02:09:03;;;;;;;;;;;;;;;18.91;48.86;98699.91;2079916;28;19966;-66
2021/12/02 02:10:04;;;;;;;;;;;;;;;18.92;48.93;98712.56;2078789;28;20453;-66
2021/12/02 02:11:04;;;;;;;;;;;;;;;18.90;48.81;98703.69;2078668;28;20513;-66
2021/12/02 02:12:07;;;;;;;;;;;;;;;18.90;48.81;98709.16;2076790;28;19924;-66
2021/12/02 02:13:09;;;;;;;;;;;;;;;18.90;48.75;98704.53;2077261;28;19973;-66
2021/12/02 02:14:10;;;;;;;;;;;;;;;18.89;48.76;98702.84;2077408;28;19917;-66
2021/12/02 02:15:10;;;;;;;;;;;;;;;18.90;48.84;98701.81;2086389;28;20398;-66
2021/12/02 02:16:11;;;;;;;;;;;;;;;18.89;48.96;98697.41;2083737;28;19916;-66
2021/12/02 02:19:20;;;;;;;;;;;;;;;18.90;48.84;98703.69;2078644;28;20496;-66
2021/12/02 02:20:25;;;;;;;;;;;;;;;18.90;48.94;98703.69;2080914;28;20350;-66
2021/12/02 02:21:25;;;;;;;;;;;;;;;18.89;48.84;98701.97;2080962;28;20810;-66
2021/12/02 02:22:26;;;;;;;;;;;;;;;18.88;48.99;98712.06;2088167;28;19931;-66
2021/12/02 02:23:29;;;;;;;;;;;;;;;18.89;48.78;98702.84;2079116;28;19930;-66
2021/12/02 02:24:30;;;;;;;;;;;;;;;18.89;48.93;98702.84;2079347;28;20327;-66
2021/12/02 02:25:31;;;;;;;;;;;;;;;18.88;48.86;98709.31;2079769;28;19939;-67
2021/12/02 02:26:36;;;;;;;;;;;;;;;18.88;48.99;98703.88;2079020;28;20945;-67
2021/12/02 02:27:36;;;;;;;;;;;;;;;18.88;48.88;98703.88;2074085;28;19917;-66
2021/12/02 02:28:37;;;;;;;;;;;;;;;18.89;48.95;98712.91;2080097;28;19917;-66
2021/12/02 02:29:37;;;;;;;;;;;;;;;18.89;48.91;98712.91;2080223;28;19912;-66
2021/12/02 02:30:38;;;;;;;;;;;;;;;18.89;48.74;98707.44;2074317;28;20491;-66
2021/12/02 02:31:39;;;;;;;;;;;;;;;18.90;48.83;98706.44;2077610;28;20054;-66
2021/12/02 02:32:40;;;;;;;;;;;;;;;18.88;48.92;98701.13;2079124;28;19951;-66
2021/12/02 02:33:40;;;;;;;;;;;;;;;18.88;48.87;98701.13;2086728;28;20806;-66
2021/12/02 02:34:40;;;;;;;;;;;;;;;18.89;48.83;98700.13;2087144;28;19924;-66
2021/12/02 02:35:42;;;;;;;;;;;;;;;18.88;48.84;98700.28;2078170;28;19916;-66
2021/12/02 02:36:59;;;;;;;;;;;;;;;18.87;48.84;98704.06;2079071;28;20974;-67
2021/12/02 02:38:00;;;;;;;;;;;;;;;18.87;48.86;98699.44;2081618;28;20679;-67
2021/12/02 02:39:02;;;;;;;;;;;;;;;18.87;48.88;98707.63;2071757;28;20360;-66
2021/12/02 02:40:05;;;;;;;;;;;;;;;18.87;48.92;98698.59;2076769;28;19920;-66
2021/12/02 02:41:08;;;;;;;;;;;;;;;18.87;48.89;98698.59;2078897;28;19916;-66
2021/12/02 02:42:09;;;;;;;;;;;;;;;18.87;48.90;98698.59;2087599;28;19917;-66
2021/12/02 02:43:10;;;;;;;;;;;;;;;18.87;48.89;98698.59;2085618;28;19946;-66
2021/12/02 02:44:11;;;;;;;;;;;;;;;18.85;48.94;98696.88;2087907;28;20367;-67
2021/12/02 02:45:11;;;;;;;;;;;;;;;18.84;48.95;98692.47;2086449;28;20604;-66
2021/12/02 02:46:19;;;;;;;;;;;;;;;18.84;48.89;98695.22;2072097;28;20378;-66
2021/12/02 02:47:24;;;;;;;;;;;;;;;18.83;48.96;98692.66;2076628;28;20226;-66
2021/12/02 02:48:24;;;;;;;;;;;;;;;18.85;49.06;98696.06;2077996;28;19913;-66
2021/12/02 02:49:25;;;;;;;;;;;;;;;18.83;49.07;98693.50;2078599;28;19991;-66
2021/12/02 02:50:25;;;;;;;;;;;;;;;18.83;49.07;98682.56;2080156;28;20394;-67
2021/12/02 02:51:26;;;;;;;;;;;;;;;18.82;49.04;98689.06;2081092;28;20355;-66
2021/12/02 02:52:28;;;;;;;;;;;;;;;18.82;49.00;98691.81;2088897;28;20351;-66
2021/12/02 02:53:31;;;;;;;;;;;;;;;18.82;49.06;98685.50;2075097;28;20205;-66
2021/12/02 02:54:31;;;;;;;;;;;;;;;18.81;49.06;98684.66;2075409;28;19999;-66
2021/12/02 02:55:34;;;;;;;;;;;;;;;18.82;48.99;98686.34;2080695;28;19916;-66
2021/12/02 02:56:37;;;;;;;;;;;;;;;18.82;49.06;98691.81;2084312;28;19920;-66
2021/12/02 02:58:20;;;;;;;;;;;;;;;18.82;49.15;98686.34;2080612;28;19909;-66
2021/12/02 02:59:29;;;;;;;;;;;;;;;18.81;49.04;98679.19;2075957;28;19917;-67
2021/12/02 03:00:36;;;;;;;;;;;;;;;18.82;49.05;98691.81;2074316;28;20768;-66
2021/12/02 03:01:49;;;;;;;;;;;;;;;18.81;49.04;98687.38;2078244;28;19920;-66
2021/12/02 03:08:13;;;;;;;;;;;;;;;18.78;49.02;98687.72;2076364;28;19921;-66
2021/12/02 03:11:26;;;;;;;;;;;;;;;18.78;49.10;98690.47;2078783;28;19956;-66
2021/12/02 03:13:16;;;;;;;;;;;;;;;18.78;49.13;98685.00;2079250;28;19912;-67
2021/12/02 03:13:52;;;;;;;;;;;;;;;18.78;49.18;98685.00;2070670;28;19921;-66
2021/12/02 03:17:34;;;;;;;;;;;;;;;18.77;49.09;98688.78;2079961;28;20090;-66
2021/12/02 03:18:35;;;;;;;;;;;;;;;18.76;49.17;98676.13;2077067;28;20159;-67
2021/12/02 03:19:38;;;;;;;;;;;;;;;18.75;49.06;98679.88;2078441;28;19913;-66
2021/12/02 03:20:39;;;;;;;;;;;;;;;18.76;49.22;98681.59;2079795;28;20418;-66
2021/12/02 03:21:39;;;;;;;;;;;;;;;18.76;49.14;98678.88;2078074;28;21257;-67
2021/12/02 03:22:40;;;;;;;;;;;;;;;18.76;49.18;98678.88;2079259;28;19920;-66
2021/12/02 03:23:47;;;;;;;;;;;;;;;18.75;49.23;98679.88;2074617;28;19913;-66
2021/12/02 03:24:48;;;;;;;;;;;;;;;18.75;49.17;98679.88;2073066;28;19963;-66
2021/12/02 03:25:48;;;;;;;;;;;;;;;18.75;49.18;98676.31;2072843;28;20238;-66
2021/12/02 03:26:48;;;;;;;;;;;;;;;18.75;49.25;98684.50;2074136;28;20059;-66
2021/12/02 03:27:49;;;;;;;;;;;;;;;18.74;49.20;98678.19;2073878;28;20050;-66
2021/12/02 03:28:50;;;;;;;;;;;;;;;18.74;49.21;98683.66;2080136;28;19909;-66
2021/12/02 03:29:51;;;;;;;;;;;;;;;18.74;49.28;98686.38;2080422;28;20062;-66
2021/12/02 03:30:51;;;;;;;;;;;;;;;18.74;49.18;98678.19;2079658;28;19913;-66
2021/12/02 03:31:51;;;;;;;;;;;;;;;18.74;49.27;98677.31;2085700;28;19916;-66
2021/12/02 03:32:52;;;;;;;;;;;;;;;18.73;49.29;98676.47;2087564;28;19908;-67
2021/12/02 03:33:52;;;;;;;;;;;;;;;18.73;49.17;98676.47;2079544;28;19956;-66
2021/12/02 03:34:53;;;;;;;;;;;;;;;18.74;49.30;98677.31;2081129;28;19916;-66
2021/12/02 03:35:53;;;;;;;;;;;;;;;18.72;49.34;98682.97;2074232;28;19917;-66
2021/12/02 03:36:54;;;;;;;;;;;;;;;18.72;49.23;98674.78;2076267;28;19971;-66
2021/12/02 03:37:54;;;;;;;;;;;;;;;18.71;49.26;98667.63;2081097;28;19923;-66
2021/12/02 03:38:54;;;;;;;;;;;;;;;18.71;49.31;98667.63;2078626;28;19927;-66
2021/12/02 03:39:55;;;;;;;;;;;;;;;18.72;49.25;98671.22;2080442;28;19951;-66
2021/12/02 03:40:55;;;;;;;;;;;;;;;18.71;49.44;98666.78;2081378;28;19913;-66
2021/12/02 03:41:56;;;;;;;;;;;;;;;18.71;49.46;98672.22;2075920;28;19925;-66
2021/12/02 03:42:56;;;;;;;;;;;;;;;18.71;49.41;98674.97;2081629;28;19917;-66
2021/12/02 03:43:56;;;;;;;;;;;;;;;18.70;49.40;98674.13;2082170;28;20660;-66
2021/12/02 03:44:57;;;;;;;;;;;;;;;18.70;49.34;98679.56;2078993;28;19917;-67
2021/12/02 03:45:57;;;;;;;;;;;;;;;18.70;49.30;98665.94;2081593;28;19917;-66
2021/12/02 03:46:58;;;;;;;;;;;;;;;18.70;49.32;98670.53;2080416;28;19917;-66
2021/12/02 03:47:58;;;;;;;;;;;;;;;18.69;49.32;98680.63;2086323;28;19940;-66
2021/12/02 03:48:59;;;;;;;;;;;;;;;18.69;49.41;98686.09;2081660;28;19943;-67
2021/12/02 03:49:59;;;;;;;;;;;;;;;18.69;49.51;98680.63;2080857;28;19924;-66
2021/12/02 03:51:00;;;;;;;;;;;;;;;18.69;49.52;98679.75;2078457;28;20462;-66
2021/12/02 03:52:00;;;;;;;;;;;;;;;18.68;49.40;98673.44;2078207;28;19924;-66
2021/12/02 03:53:00;;;;;;;;;;;;;;;18.68;49.45;98673.44;2081446;28;19928;-66
2021/12/02 03:54:01;;;;;;;;;;;;;;;18.67;49.42;98666.31;2085987;28;19920;-66
2021/12/02 03:55:01;;;;;;;;;;;;;;;18.66;49.41;98672.78;2089571;28;19922;-67
2021/12/02 03:56:02;;;;;;;;;;;;;;;18.66;49.43;98672.78;2080339;28;20306;-66
2021/12/02 03:57:03;;;;;;;;;;;;;;;18.66;49.47;98670.03;2082188;28;19923;-67
2021/12/02 03:58:03;;;;;;;;;;;;;;;18.66;49.47;98675.50;2081948;28;19920;-67
2021/12/02 03:59:04;;;;;;;;;;;;;;;18.66;49.52;98675.50;2082121;28;20161;-66
2021/12/02 04:00:04;;;;;;;;;;;;;;;18.66;49.37;98678.22;2074878;28;20492;-66
2021/12/02 04:01:06;;;;;;;;;;;;;;;18.65;49.43;98671.09;2088253;28;20308;-66
2021/12/02 04:02:06;;;;;;;;;;;;;;;18.66;49.38;98680.13;2086853;28;19924;-66
2021/12/02 04:03:07;;;;;;;;;;;;;;;18.65;49.46;98671.09;2080738;28;19921;-66
2021/12/02 04:04:07;;;;;;;;;;;;;;;18.64;49.45;98677.56;2081384;28;20727;-67
2021/12/02 04:05:07;;;;;;;;;;;;;;;18.64;49.47;98672.09;2082979;28;19921;-66
2021/12/02 04:06:08;;;;;;;;;;;;;;;18.63;49.42;98662.22;2081188;28;19917;-67
2021/12/02 04:08:51;;;;;;;;;;;;;;;18.62;49.48;98674.19;2078584;28;19905;-66
2021/12/02 04:09:53;;;;;;;;;;;;;;;18.62;49.48;98666.00;2078380;28;19923;-67
2021/12/02 04:10:59;;;;;;;;;;;;;;;18.61;49.59;98678.78;2081872;28;19931;-66
2021/12/02 04:13:31;;;;;;;;;;;;;;;18.61;49.58;98678.78;2059968;28;19960;-67
2021/12/02 04:15:35;;;;;;;;;;;;;;;18.60;49.58;98671.63;2083030;28;19917;-66
2021/12/02 04:16:37;;;;;;;;;;;;;;;18.61;49.49;98675.19;2078127;28;20015;-66
2021/12/02 04:17:44;;;;;;;;;;;;;;;18.59;49.56;98680.84;2077853;28;20375;-66
2021/12/02 04:18:44;;;;;;;;;;;;;;;18.60;49.52;98673.50;2082334;28;20011;-66
2021/12/02 04:19:44;;;;;;;;;;;;;;;18.60;49.47;98670.78;2081766;28;20054;-66
2021/12/02 04:20:45;;;;;;;;;;;;;;;18.58;49.77;98668.22;2077882;28;19940;-67
2021/12/02 04:21:45;;;;;;;;;;;;;;;18.59;49.63;98671.78;2081529;28;19921;-66
2021/12/02 04:22:45;;;;;;;;;;;;;;;18.58;49.54;98668.22;2080597;28;19928;-66
2021/12/02 04:23:46;;;;;;;;;;;;;;;18.58;49.63;98667.38;2082574;28;19913;-66
2021/12/02 04:24:46;;;;;;;;;;;;;;;18.57;49.46;98674.72;2081445;28;19921;-67
2021/12/02 04:25:46;;;;;;;;;;;;;;;18.57;49.51;98671.13;2081679;28;19917;-66
2021/12/02 04:26:47;;;;;;;;;;;;;;;18.58;49.75;98672.84;2079772;28;19920;-67
2021/12/02 04:27:48;;;;;;;;;;;;;;;18.57;49.75;98662.94;2076630;28;20302;-68
2021/12/02 04:28:48;;;;;;;;;;;;;;;18.56;49.68;98663.97;2082299;28;20581;-68
2021/12/02 04:29:48;;;;;;;;;;;;;;;18.56;49.71;98669.44;2077234;28;20468;-68
2021/12/02 04:30:49;;;;;;;;;;;;;;;18.56;49.69;98670.28;2080604;28;20376;-68
2021/12/02 04:31:49;;;;;;;;;;;;;;;18.55;49.85;98665.03;2081762;28;19944;-68
2021/12/02 04:32:50;;;;;;;;;;;;;;;18.54;49.82;98661.41;2080972;28;19967;-65
2021/12/02 04:33:50;;;;;;;;;;;;;;;18.54;49.62;98666.03;2081993;28;19913;-66
2021/12/02 04:34:50;;;;;;;;;;;;;;;18.54;49.70;98666.03;2081556;28;19917;-66
2021/12/02 04:35:52;;;;;;;;;;;;;;;18.53;49.81;98667.91;2081806;28;19917;-66
2021/12/02 04:36:53;;;;;;;;;;;;;;;18.53;49.71;98664.34;2082611;28;19913;-66
2021/12/02 04:37:53;;;;;;;;;;;;;;;18.53;49.78;98667.06;2081076;28;19912;-66
2021/12/02 04:38:53;;;;;;;;;;;;;;;18.53;49.77;98670.66;2074240;28;20000;-65
2021/12/02 04:39:53;;;;;;;;;;;;;;;18.53;49.88;98664.34;2079240;28;19952;-66
2021/12/02 04:40:54;;;;;;;;;;;;;;;18.52;49.87;98668.09;2079809;28;19946;-68
2021/12/02 04:41:55;;;;;;;;;;;;;;;18.52;49.82;98665.34;2081431;28;19916;-68
2021/12/02 04:42:55;;;;;;;;;;;;;;;18.51;49.81;98661.78;2081035;28;20004;-68
2021/12/02 04:43:55;;;;;;;;;;;;;;;18.50;49.72;98662.84;2081694;28;19958;-68
2021/12/02 04:44:56;;;;;;;;;;;;;;;18.50;49.80;98656.53;2081410;28;19917;-68
2021/12/02 04:45:56;;;;;;;;;;;;;;;18.50;49.89;98659.25;2080305;28;20304;-68
2021/12/02 04:46:57;;;;;;;;;;;;;;;18.50;49.88;98660.09;2081490;28;20327;-67
2021/12/02 04:47:58;;;;;;;;;;;;;;;18.49;49.89;98657.53;2084683;28;20462;-68
2021/12/02 04:48:58;;;;;;;;;;;;;;;18.49;49.94;98660.28;2084960;28;19958;-68
2021/12/02 04:49:59;;;;;;;;;;;;;;;18.49;49.82;98657.53;2082136;28;19980;-68
2021/12/02 04:50:59;;;;;;;;;;;;;;;18.48;49.91;98659.44;2077568;28;19999;-68
2021/12/02 04:52:00;;;;;;;;;;;;;;;18.48;49.78;98656.69;2082142;28;20015;-68
2021/12/02 04:53:00;;;;;;;;;;;;;;;18.48;49.91;98661.31;2082088;28;19912;-68
2021/12/02 04:54:00;;;;;;;;;;;;;;;18.47;49.95;98663.19;2080327;28;20393;-68
2021/12/02 04:55:01;;;;;;;;;;;;;;;18.47;49.78;98659.59;2082470;28;20783;-68
2021/12/02 04:56:01;;;;;;;;;;;;;;;18.47;49.76;98659.59;2085187;28;19917;-68
2021/12/02 04:57:02;;;;;;;;;;;;;;;18.47;49.92;98657.75;2086057;28;19955;-68
2021/12/02 04:58:02;;;;;;;;;;;;;;;18.46;49.88;98657.91;2081761;28;20559;-67
2021/12/02 04:59:02;;;;;;;;;;;;;;;18.46;49.81;98663.38;2081503;28;19917;-68
2021/12/02 05:00:04;;;;;;;;;;;;;;;18.46;50.01;98664.22;2079878;28;19917;-67
2021/12/02 05:01:04;;;;;;;;;;;;;;;18.46;50.03;98664.22;2081729;28;19917;-68
2021/12/02 05:02:04;;;;;;;;;;;;;;;18.46;49.84;98668.81;2079405;28;19905;-68
2021/12/02 05:03:05;;;;;;;;;;;;;;;18.45;49.89;98667.97;2080861;28;20448;-68
2021/12/02 05:04:05;;;;;;;;;;;;;;;18.46;49.85;98663.38;2081254;28;19912;-68
2021/12/02 05:05:06;;;;;;;;;;;;;;;18.45;50.01;98673.44;2080768;28;19912;-68
2021/12/02 05:06:06;;;;;;;;;;;;;;;18.46;49.86;98668.81;2081714;28;19913;-68
2021/12/02 05:07:07;;;;;;;;;;;;;;;18.43;49.89;98668.16;2081850;28;20054;-68
2021/12/02 05:08:07;;;;;;;;;;;;;;;18.42;49.95;98663.75;2080140;28;19913;-68
2021/12/02 05:09:07;;;;;;;;;;;;;;;18.43;50.05;98670.88;2080571;28;19987;-68
2021/12/02 05:10:08;;;;;;;;;;;;;;;18.43;49.82;98670.88;2084190;28;20098;-68
2021/12/02 05:11:08;;;;;;;;;;;;;;;18.43;50.01;98670.88;2083893;28;19962;-68
2021/12/02 05:12:08;;;;;;;;;;;;;;;18.42;49.99;98669.19;2080812;28;19959;-67
2021/12/02 05:13:09;;;;;;;;;;;;;;;18.42;50.11;98673.78;2081503;28;20301;-68
2021/12/02 05:14:09;;;;;;;;;;;;;;;18.41;49.88;98678.38;2080764;28;19987;-68
2021/12/02 05:15:10;;;;;;;;;;;;;;;18.41;49.95;98677.53;2082186;28;19959;-68
2021/12/02 05:16:10;;;;;;;;;;;;;;;18.41;50.07;98674.81;2079123;28;20132;-68
2021/12/02 05:17:10;;;;;;;;;;;;;;;18.41;50.09;98683.00;2082367;28;19935;-68
2021/12/02 05:18:11;;;;;;;;;;;;;;;18.41;50.13;98677.53;2081779;28;19916;-66
2021/12/02 05:19:11;;;;;;;;;;;;;;;18.40;50.10;98682.16;2081464;28;19942;-66
2021/12/02 05:20:11;;;;;;;;;;;;;;;18.40;50.13;98687.63;2081901;28;19917;-66
2021/12/02 05:21:12;;;;;;;;;;;;;;;18.39;49.94;98677.72;2080807;28;20417;-66
2021/12/02 05:22:12;;;;;;;;;;;;;;;18.39;50.08;98691.34;2081925;28;20311;-66
2021/12/02 05:23:12;;;;;;;;;;;;;;;18.38;49.91;98689.66;2088785;28;19925;-66
2021/12/02 05:24:12;;;;;;;;;;;;;;;18.38;50.21;98689.66;2088326;28;19974;-66
2021/12/02 05:25:13;;;;;;;;;;;;;;;18.38;49.94;98686.94;2081714;28;19936;-66
2021/12/02 05:26:13;;;;;;;;;;;;;;;18.38;49.99;98686.09;2077893;28;19978;-67
2021/12/02 05:27:14;;;;;;;;;;;;;;;18.37;49.98;98687.97;2077766;28;20236;-66
2021/12/02 05:28:15;;;;;;;;;;;;;;;18.38;49.99;98683.38;2080191;28;19990;-67
2021/12/02 05:29:16;;;;;;;;;;;;;;;18.36;50.15;98686.25;2076365;28;19917;-67
2021/12/02 05:30:16;;;;;;;;;;;;;;;18.37;50.12;98687.97;2079899;28;19917;-66
2021/12/02 05:31:16;;;;;;;;;;;;;;;18.37;50.23;98684.38;2079072;28;19912;-66
2021/12/02 05:32:17;;;;;;;;;;;;;;;18.36;50.01;98680.81;2075836;28;19917;-66
2021/12/02 05:33:17;;;;;;;;;;;;;;;18.36;50.07;98691.72;2086791;28;20393;-66
2021/12/02 05:34:18;;;;;;;;;;;;;;;18.35;50.29;98695.50;2081493;28;19920;-66
2021/12/02 05:35:18;;;;;;;;;;;;;;;18.36;50.20;98683.53;2083355;28;19917;-67
2021/12/02 05:36:18;;;;;;;;;;;;;;;18.34;50.14;98688.31;2081682;28;19960;-66
2021/12/02 05:37:18;;;;;;;;;;;;;;;18.34;50.34;98688.31;2075386;28;20418;-67
2021/12/02 05:38:19;;;;;;;;;;;;;;;18.34;50.15;98687.47;2080736;28;19916;-66
2021/12/02 05:39:19;;;;;;;;;;;;;;;18.34;49.99;98690.22;2075268;28;20433;-65
2021/12/02 05:40:20;;;;;;;;;;;;;;;18.33;50.07;98686.63;2075920;28;20362;-66
2021/12/02 05:41:20;;;;;;;;;;;;;;;18.33;50.14;98694.81;2075125;28;19909;-66